Terminal Aerodrome Forecast
Issued by NWS

Home | Current Version | Previous Version | Text Only | Print | Product List | Glossary On
Versions: 1 2 3 4 5 6 7 8 9 10 11 12 13 14 15 16 17 18 19 20 21 22 23 24 25 26 27
000
FTUS45 KBOI 221137
TAFTWF
TAF
KTWF 221137Z 2212/2312 20015G22KT P6SM -RA OVC050
     FM221800 25020G35KT P6SM -SHRA OVC030
     FM222100 25015G25KT 3SM -SHSN OVC025
     FM230000 25015G25KT P6SM VCSH SCT050 BKN080=

USA.gov is the U.S. government's official web portal to all federal, state and local government web resources and services.